sensor_id;sensor_type;location;lat;lon;timestamp;P1;durP1;ratioP1;P2;durP2;ratioP2
65581;SDS011;52231;40.090;18.348;2022-12-13T00:01:58;18.50;;;8.52;;
65581;SDS011;52231;40.090;18.348;2022-12-13T00:04:26;15.15;;;7.63;;
65581;SDS011;52231;40.090;18.348;2022-12-13T00:06:54;13.57;;;7.47;;
65581;SDS011;52231;40.090;18.348;2022-12-13T00:09:23;16.27;;;8.13;;
65581;SDS011;52231;40.090;18.348;2022-12-13T00:11:51;14.38;;;7.82;;
65581;SDS011;52231;40.090;18.348;2022-12-13T00:14:19;14.32;;;7.07;;
65581;SDS011;52231;40.090;18.348;2022-12-13T00:16:48;16.17;;;7.93;;
65581;SDS011;52231;40.090;18.348;2022-12-13T00:19:16;15.13;;;7.22;;
65581;SDS011;52231;40.090;18.348;2022-12-13T00:24:13;16.20;;;7.40;;
65581;SDS011;52231;40.090;18.348;2022-12-13T00:26:41;15.68;;;7.85;;
65581;SDS011;52231;40.090;18.348;2022-12-13T00:29:10;14.90;;;7.90;;
65581;SDS011;52231;40.090;18.348;2022-12-13T00:31:38;16.25;;;7.60;;
65581;SDS011;52231;40.090;18.348;2022-12-13T00:34:41;15.05;;;7.18;;
65581;SDS011;52231;40.090;18.348;2022-12-13T00:37:09;15.38;;;8.25;;
65581;SDS011;52231;40.090;18.348;2022-12-13T00:39:37;16.95;;;7.65;;
65581;SDS011;52231;40.090;18.348;2022-12-13T00:42:06;15.57;;;7.30;;
65581;SDS011;52231;40.090;18.348;2022-12-13T00:44:34;15.43;;;7.05;;
65581;SDS011;52231;40.090;18.348;2022-12-13T00:47:02;15.48;;;7.72;;
65581;SDS011;52231;40.090;18.348;2022-12-13T00:49:30;13.35;;;6.05;;
65581;SDS011;52231;40.090;18.348;2022-12-13T00:51:58;14.30;;;6.68;;
65581;SDS011;52231;40.090;18.348;2022-12-13T00:54:27;14.65;;;6.68;;
65581;SDS011;52231;40.090;18.348;2022-12-13T00:56:55;12.32;;;6.82;;
65581;SDS011;52231;40.090;18.348;2022-12-13T00:59:23;16.08;;;7.18;;
65581;SDS011;52231;40.090;18.348;2022-12-13T01:01:51;13.45;;;6.50;;
65581;SDS011;52231;40.090;18.348;2022-12-13T01:04:20;15.45;;;6.68;;
65581;SDS011;52231;40.090;18.348;2022-12-13T01:06:49;18.00;;;7.40;;
65581;SDS011;52231;40.090;18.348;2022-12-13T01:09:21;13.35;;;6.72;;
65581;SDS011;52231;40.090;18.348;2022-12-13T01:12:11;12.45;;;6.55;;
65581;SDS011;52231;40.090;18.348;2022-12-13T01:14:58;13.57;;;6.00;;
65581;SDS011;52231;40.090;18.348;2022-12-13T01:17:26;12.88;;;6.25;;
65581;SDS011;52231;40.090;18.348;2022-12-13T01:19:55;12.60;;;5.72;;
65581;SDS011;52231;40.090;18.348;2022-12-13T01:22:23;13.10;;;6.10;;
65581;SDS011;52231;40.090;18.348;2022-12-13T01:24:51;13.93;;;6.03;;
65581;SDS011;52231;40.090;18.348;2022-12-13T01:27:19;13.35;;;6.25;;
65581;SDS011;52231;40.090;18.348;2022-12-13T01:29:47;15.70;;;6.32;;
65581;SDS011;52231;40.090;18.348;2022-12-13T01:32:15;12.30;;;6.25;;
65581;SDS011;52231;40.090;18.348;2022-12-13T01:34:44;11.80;;;5.78;;
65581;SDS011;52231;40.090;18.348;2022-12-13T01:37:12;12.45;;;6.43;;
65581;SDS011;52231;40.090;18.348;2022-12-13T01:39:40;19.55;;;6.68;;
65581;SDS011;52231;40.090;18.348;2022-12-13T01:42:09;15.75;;;5.72;;
65581;SDS011;52231;40.090;18.348;2022-12-13T01:47:43;12.93;;;5.82;;
65581;SDS011;52231;40.090;18.348;2022-12-13T01:50:20;11.45;;;5.60;;
65581;SDS011;52231;40.090;18.348;2022-12-13T01:52:54;14.50;;;5.55;;
65581;SDS011;52231;40.090;18.348;2022-12-13T01:55:24;12.35;;;5.47;;
65581;SDS011;52231;40.090;18.348;2022-12-13T01:57:57;11.23;;;5.28;;
65581;SDS011;52231;40.090;18.348;2022-12-13T02:00:28;10.23;;;4.75;;
65581;SDS011;52231;40.090;18.348;2022-12-13T02:02:57;11.95;;;4.80;;
65581;SDS011;52231;40.090;18.348;2022-12-13T02:05:48;10.23;;;4.40;;
65581;SDS011;52231;40.090;18.348;2022-12-13T02:08:28;10.98;;;4.43;;
65581;SDS011;52231;40.090;18.348;2022-12-13T02:10:56;13.13;;;4.97;;
65581;SDS011;52231;40.090;18.348;2022-12-13T02:13:25;11.70;;;4.80;;
65581;SDS011;52231;40.090;18.348;2022-12-13T02:24:25;13.40;;;4.97;;
65581;SDS011;52231;40.090;18.348;2022-12-13T02:28:08;12.85;;;4.70;;
65581;SDS011;52231;40.090;18.348;2022-12-13T02:30:22;10.35;;;4.75;;
65581;SDS011;52231;40.090;18.348;2022-12-13T02:33:10;10.88;;;5.00;;
65581;SDS011;52231;40.090;18.348;2022-12-13T02:35:50;11.07;;;5.50;;
65581;SDS011;52231;40.090;18.348;2022-12-13T02:43:57;11.18;;;5.50;;
65581;SDS011;52231;40.090;18.348;2022-12-13T02:46:31;11.00;;;5.35;;
65581;SDS011;52231;40.090;18.348;2022-12-13T02:49:04;11.18;;;5.00;;
65581;SDS011;52231;40.090;18.348;2022-12-13T02:51:35;17.67;;;5.80;;
65581;SDS011;52231;40.090;18.348;2022-12-13T02:54:05;11.30;;;5.32;;
65581;SDS011;52231;40.090;18.348;2022-12-13T02:56:33;14.00;;;5.30;;
65581;SDS011;52231;40.090;18.348;2022-12-13T02:59:02;11.52;;;4.95;;
65581;SDS011;52231;40.090;18.348;2022-12-13T03:01:41;10.27;;;4.60;;
65581;SDS011;52231;40.090;18.348;2022-12-13T03:18:41;13.82;;;5.25;;
65581;SDS011;52231;40.090;18.348;2022-12-13T03:21:10;11.32;;;5.20;;
65581;SDS011;52231;40.090;18.348;2022-12-13T03:23:39;13.07;;;5.18;;
65581;SDS011;52231;40.090;18.348;2022-12-13T03:26:12;11.35;;;5.47;;
65581;SDS011;52231;40.090;18.348;2022-12-13T03:28:43;14.95;;;5.95;;
65581;SDS011;52231;40.090;18.348;2022-12-13T03:31:11;12.68;;;5.55;;
65581;SDS011;52231;40.090;18.348;2022-12-13T03:33:39;12.85;;;5.53;;
65581;SDS011;52231;40.090;18.348;2022-12-13T03:36:09;11.15;;;5.60;;
65581;SDS011;52231;40.090;18.348;2022-12-13T03:38:39;15.27;;;6.45;;
65581;SDS011;52231;40.090;18.348;2022-12-13T03:43:37;13.05;;;6.05;;
65581;SDS011;52231;40.090;18.348;2022-12-13T03:46:06;17.70;;;6.72;;
65581;SDS011;52231;40.090;18.348;2022-12-13T03:48:35;12.38;;;6.40;;
65581;SDS011;52231;40.090;18.348;2022-12-13T03:51:04;16.10;;;6.53;;
65581;SDS011;52231;40.090;18.348;2022-12-13T03:53:32;16.60;;;7.45;;
65581;SDS011;52231;40.090;18.348;2022-12-13T03:56:02;15.13;;;7.53;;
65581;SDS011;52231;40.090;18.348;2022-12-13T03:58:32;13.40;;;7.40;;
65581;SDS011;52231;40.090;18.348;2022-12-13T04:01:07;12.98;;;6.82;;
65581;SDS011;52231;40.090;18.348;2022-12-13T04:03:38;12.90;;;6.93;;
65581;SDS011;52231;40.090;18.348;2022-12-13T04:06:07;15.40;;;7.03;;
65581;SDS011;52231;40.090;18.348;2022-12-13T04:08:37;15.02;;;6.70;;
65581;SDS011;52231;40.090;18.348;2022-12-13T04:11:06;14.43;;;6.70;;
65581;SDS011;52231;40.090;18.348;2022-12-13T04:14:12;12.95;;;6.05;;
65581;SDS011;52231;40.090;18.348;2022-12-13T04:16:40;11.75;;;5.47;;
65581;SDS011;52231;40.090;18.348;2022-12-13T04:19:09;11.68;;;5.60;;
65581;SDS011;52231;40.090;18.348;2022-12-13T04:21:37;12.13;;;5.50;;
65581;SDS011;52231;40.090;18.348;2022-12-13T04:24:06;11.77;;;5.50;;
65581;SDS011;52231;40.090;18.348;2022-12-13T04:26:34;11.32;;;5.53;;
65581;SDS011;52231;40.090;18.348;2022-12-13T04:29:02;10.70;;;5.55;;
65581;SDS011;52231;40.090;18.348;2022-12-13T04:31:30;12.55;;;5.88;;
65581;SDS011;52231;40.090;18.348;2022-12-13T04:33:58;13.50;;;6.18;;
65581;SDS011;52231;40.090;18.348;2022-12-13T04:36:26;13.85;;;6.13;;
65581;SDS011;52231;40.090;18.348;2022-12-13T04:38:55;11.73;;;6.22;;
65581;SDS011;52231;40.090;18.348;2022-12-13T04:41:23;13.90;;;6.95;;
65581;SDS011;52231;40.090;18.348;2022-12-13T04:43:52;12.93;;;7.10;;
65581;SDS011;52231;40.090;18.348;2022-12-13T04:46:21;15.05;;;7.28;;
65581;SDS011;52231;40.090;18.348;2022-12-13T04:48:49;15.00;;;7.20;;
65581;SDS011;52231;40.090;18.348;2022-12-13T04:51:17;15.30;;;7.25;;
65581;SDS011;52231;40.090;18.348;2022-12-13T04:53:45;16.00;;;6.78;;
65581;SDS011;52231;40.090;18.348;2022-12-13T04:56:13;13.88;;;7.28;;
65581;SDS011;52231;40.090;18.348;2022-12-13T04:58:41;14.48;;;7.25;;
65581;SDS011;52231;40.090;18.348;2022-12-13T05:01:10;12.63;;;6.60;;
65581;SDS011;52231;40.090;18.348;2022-12-13T05:03:38;13.88;;;6.90;;
65581;SDS011;52231;40.090;18.348;2022-12-13T05:06:07;15.98;;;7.47;;
65581;SDS011;52231;40.090;18.348;2022-12-13T05:08:38;17.00;;;7.65;;
65581;SDS011;52231;40.090;18.348;2022-12-13T05:11:07;14.68;;;8.05;;
65581;SDS011;52231;40.090;18.348;2022-12-13T05:13:38;14.65;;;7.57;;
65581;SDS011;52231;40.090;18.348;2022-12-13T05:16:06;15.23;;;8.02;;
65581;SDS011;52231;40.090;18.348;2022-12-13T05:18:35;15.00;;;7.28;;
65581;SDS011;52231;40.090;18.348;2022-12-13T05:21:04;16.38;;;6.82;;
65581;SDS011;52231;40.090;18.348;2022-12-13T05:23:35;13.98;;;7.03;;
65581;SDS011;52231;40.090;18.348;2022-12-13T05:26:05;14.50;;;6.90;;
65581;SDS011;52231;40.090;18.348;2022-12-13T05:28:33;14.30;;;6.65;;
65581;SDS011;52231;40.090;18.348;2022-12-13T05:31:06;12.77;;;6.90;;
65581;SDS011;52231;40.090;18.348;2022-12-13T05:33:36;15.43;;;6.88;;
65581;SDS011;52231;40.090;18.348;2022-12-13T05:36:04;13.25;;;6.25;;
65581;SDS011;52231;40.090;18.348;2022-12-13T05:38:33;13.38;;;6.28;;
65581;SDS011;52231;40.090;18.348;2022-12-13T05:41:01;15.23;;;7.55;;
65581;SDS011;52231;40.090;18.348;2022-12-13T05:43:31;13.55;;;6.82;;
65581;SDS011;52231;40.090;18.348;2022-12-13T05:45:59;18.48;;;9.07;;
65581;SDS011;52231;40.090;18.348;2022-12-13T05:48:28;18.50;;;9.15;;
65581;SDS011;52231;40.090;18.348;2022-12-13T05:50:56;19.58;;;11.30;;
65581;SDS011;52231;40.090;18.348;2022-12-13T05:53:24;23.05;;;11.88;;
65581;SDS011;52231;40.090;18.348;2022-12-13T05:55:52;18.95;;;10.43;;
65581;SDS011;52231;40.090;18.348;2022-12-13T05:58:20;17.13;;;9.52;;
65581;SDS011;52231;40.090;18.348;2022-12-13T06:00:48;19.75;;;9.75;;
65581;SDS011;52231;40.090;18.348;2022-12-13T06:03:16;17.58;;;8.38;;
65581;SDS011;52231;40.090;18.348;2022-12-13T06:05:44;19.75;;;8.75;;
65581;SDS011;52231;40.090;18.348;2022-12-13T06:08:13;17.13;;;7.57;;
65581;SDS011;52231;40.090;18.348;2022-12-13T06:13:09;19.30;;;9.48;;
65581;SDS011;52231;40.090;18.348;2022-12-13T06:15:37;45.80;;;23.35;;
65581;SDS011;52231;40.090;18.348;2022-12-13T06:18:05;25.40;;;14.50;;
65581;SDS011;52231;40.090;18.348;2022-12-13T06:20:34;19.75;;;8.73;;
65581;SDS011;52231;40.090;18.348;2022-12-13T06:23:02;14.40;;;7.25;;
65581;SDS011;52231;40.090;18.348;2022-12-13T06:27:59;11.93;;;5.80;;
65581;SDS011;52231;40.090;18.348;2022-12-13T06:30:28;14.98;;;8.07;;
65581;SDS011;52231;40.090;18.348;2022-12-13T06:32:56;14.27;;;7.55;;
65581;SDS011;52231;40.090;18.348;2022-12-13T06:35:25;14.70;;;6.78;;
65581;SDS011;52231;40.090;18.348;2022-12-13T06:37:58;12.98;;;6.30;;
65581;SDS011;52231;40.090;18.348;2022-12-13T06:40:26;14.05;;;5.97;;
65581;SDS011;52231;40.090;18.348;2022-12-13T06:42:58;12.40;;;6.07;;
65581;SDS011;52231;40.090;18.348;2022-12-13T06:45:26;12.25;;;6.13;;
65581;SDS011;52231;40.090;18.348;2022-12-13T06:47:54;13.90;;;6.60;;
65581;SDS011;52231;40.090;18.348;2022-12-13T06:50:23;12.75;;;6.55;;
65581;SDS011;52231;40.090;18.348;2022-12-13T06:52:51;12.70;;;6.28;;
65581;SDS011;52231;40.090;18.348;2022-12-13T06:55:19;12.90;;;6.55;;
65581;SDS011;52231;40.090;18.348;2022-12-13T06:57:48;15.93;;;7.55;;
65581;SDS011;52231;40.090;18.348;2022-12-13T07:00:16;19.27;;;8.90;;
65581;SDS011;52231;40.090;18.348;2022-12-13T07:02:50;18.00;;;8.63;;
65581;SDS011;52231;40.090;18.348;2022-12-13T07:05:19;16.17;;;7.95;;
65581;SDS011;52231;40.090;18.348;2022-12-13T07:07:47;15.68;;;7.75;;
65581;SDS011;52231;40.090;18.348;2022-12-13T07:10:15;16.45;;;8.07;;
65581;SDS011;52231;40.090;18.348;2022-12-13T07:12:44;17.05;;;7.97;;
65581;SDS011;52231;40.090;18.348;2022-12-13T07:15:12;18.88;;;9.57;;
65581;SDS011;52231;40.090;18.348;2022-12-13T07:17:41;18.05;;;9.45;;
65581;SDS011;52231;40.090;18.348;2022-12-13T07:20:10;18.95;;;9.52;;
65581;SDS011;52231;40.090;18.348;2022-12-13T07:22:40;19.35;;;11.13;;
65581;SDS011;52231;40.090;18.348;2022-12-13T07:25:13;18.77;;;9.90;;
65581;SDS011;52231;40.090;18.348;2022-12-13T07:27:41;16.77;;;8.00;;
65581;SDS011;52231;40.090;18.348;2022-12-13T07:30:09;14.93;;;8.10;;
65581;SDS011;52231;40.090;18.348;2022-12-13T07:32:37;14.32;;;7.45;;
65581;SDS011;52231;40.090;18.348;2022-12-13T07:35:06;13.88;;;6.60;;
65581;SDS011;52231;40.090;18.348;2022-12-13T07:37:34;14.70;;;7.20;;
65581;SDS011;52231;40.090;18.348;2022-12-13T07:40:02;20.30;;;9.52;;
65581;SDS011;52231;40.090;18.348;2022-12-13T07:42:31;17.45;;;8.20;;
65581;SDS011;52231;40.090;18.348;2022-12-13T07:45:04;17.73;;;9.45;;
65581;SDS011;52231;40.090;18.348;2022-12-13T07:47:33;21.27;;;10.30;;
65581;SDS011;52231;40.090;18.348;2022-12-13T07:50:01;17.70;;;8.80;;
65581;SDS011;52231;40.090;18.348;2022-12-13T07:52:29;17.23;;;9.18;;
65581;SDS011;52231;40.090;18.348;2022-12-13T07:54:57;17.63;;;8.98;;
65581;SDS011;52231;40.090;18.348;2022-12-13T07:57:25;16.17;;;8.45;;
65581;SDS011;52231;40.090;18.348;2022-12-13T07:59:54;20.92;;;9.18;;
65581;SDS011;52231;40.090;18.348;2022-12-13T08:02:22;20.10;;;8.43;;
65581;SDS011;52231;40.090;18.348;2022-12-13T08:04:50;21.55;;;8.75;;
65581;SDS011;52231;40.090;18.348;2022-12-13T08:07:19;16.95;;;8.38;;
65581;SDS011;52231;40.090;18.348;2022-12-13T08:09:47;16.23;;;8.18;;
65581;SDS011;52231;40.090;18.348;2022-12-13T08:12:18;15.25;;;8.13;;
65581;SDS011;52231;40.090;18.348;2022-12-13T08:14:46;14.23;;;6.97;;
65581;SDS011;52231;40.090;18.348;2022-12-13T08:17:15;12.95;;;6.35;;
65581;SDS011;52231;40.090;18.348;2022-12-13T08:19:43;14.80;;;7.07;;
65581;SDS011;52231;40.090;18.348;2022-12-13T08:22:12;15.27;;;7.10;;
65581;SDS011;52231;40.090;18.348;2022-12-13T08:24:40;16.30;;;8.80;;
65581;SDS011;52231;40.090;18.348;2022-12-13T08:27:08;13.85;;;7.53;;
65581;SDS011;52231;40.090;18.348;2022-12-13T08:29:36;14.40;;;6.47;;
65581;SDS011;52231;40.090;18.348;2022-12-13T08:32:06;13.43;;;6.90;;
65581;SDS011;52231;40.090;18.348;2022-12-13T08:34:36;16.65;;;7.50;;
65581;SDS011;52231;40.090;18.348;2022-12-13T08:37:05;13.95;;;6.78;;
65581;SDS011;52231;40.090;18.348;2022-12-13T08:39:35;14.95;;;6.93;;
65581;SDS011;52231;40.090;18.348;2022-12-13T08:42:05;29.42;;;13.20;;
65581;SDS011;52231;40.090;18.348;2022-12-13T08:47:29;16.60;;;7.20;;
65581;SDS011;52231;40.090;18.348;2022-12-13T08:50:02;14.50;;;7.38;;
65581;SDS011;52231;40.090;18.348;2022-12-13T08:52:38;13.38;;;6.32;;
65581;SDS011;52231;40.090;18.348;2022-12-13T08:57:39;11.43;;;5.80;;
65581;SDS011;52231;40.090;18.348;2022-12-13T09:00:10;10.63;;;5.05;;
65581;SDS011;52231;40.090;18.348;2022-12-13T09:06:06;11.18;;;5.20;;
65581;SDS011;52231;40.090;18.348;2022-12-13T09:08:35;13.68;;;5.22;;
65581;SDS011;52231;40.090;18.348;2022-12-13T09:11:05;12.35;;;5.95;;
65581;SDS011;52231;40.090;18.348;2022-12-13T09:13:35;16.60;;;7.85;;
65581;SDS011;52231;40.090;18.348;2022-12-13T09:18:33;16.05;;;9.95;;
65581;SDS011;52231;40.090;18.348;2022-12-13T09:21:09;18.17;;;8.95;;
65581;SDS011;52231;40.090;18.348;2022-12-13T09:23:39;17.85;;;9.88;;
65581;SDS011;52231;40.090;18.348;2022-12-13T09:26:12;17.55;;;8.57;;
65581;SDS011;52231;40.090;18.348;2022-12-13T09:28:42;17.70;;;8.65;;
65581;SDS011;52231;40.090;18.348;2022-12-13T09:31:17;17.73;;;8.82;;
65581;SDS011;52231;40.090;18.348;2022-12-13T09:34:05;21.00;;;9.77;;
65581;SDS011;52231;40.090;18.348;2022-12-13T09:36:34;18.33;;;9.50;;
65581;SDS011;52231;40.090;18.348;2022-12-13T09:39:03;17.85;;;8.75;;
65581;SDS011;52231;40.090;18.348;2022-12-13T09:41:33;18.30;;;8.70;;
65581;SDS011;52231;40.090;18.348;2022-12-13T09:44:06;16.85;;;9.10;;
65581;SDS011;52231;40.090;18.348;2022-12-13T09:46:53;19.90;;;8.60;;
65581;SDS011;52231;40.090;18.348;2022-12-13T09:49:28;18.25;;;8.95;;
65581;SDS011;52231;40.090;18.348;2022-12-13T09:52:01;21.35;;;9.13;;
65581;SDS011;52231;40.090;18.348;2022-12-13T09:54:52;20.60;;;7.35;;
65581;SDS011;52231;40.090;18.348;2022-12-13T09:57:26;14.40;;;6.10;;
65581;SDS011;52231;40.090;18.348;2022-12-13T10:00:20;11.20;;;5.18;;
65581;SDS011;52231;40.090;18.348;2022-12-13T10:02:56;10.95;;;4.70;;
65581;SDS011;52231;40.090;18.348;2022-12-13T10:05:27;13.50;;;4.57;;
65581;SDS011;52231;40.090;18.348;2022-12-13T10:08:11;11.40;;;4.10;;
65581;SDS011;52231;40.090;18.348;2022-12-13T10:10:46;8.23;;;3.40;;
65581;SDS011;52231;40.090;18.348;2022-12-13T10:13:30;11.05;;;4.30;;
65581;SDS011;52231;40.090;18.348;2022-12-13T10:18:55;7.00;;;2.70;;
65581;SDS011;52231;40.090;18.348;2022-12-13T10:23:55;10.23;;;4.05;;
65581;SDS011;52231;40.090;18.348;2022-12-13T10:26:51;7.63;;;2.75;;
65581;SDS011;52231;40.090;18.348;2022-12-13T10:29:23;7.55;;;2.45;;
65581;SDS011;52231;40.090;18.348;2022-12-13T10:31:51;6.57;;;2.08;;
65581;SDS011;52231;40.090;18.348;2022-12-13T10:34:22;6.88;;;2.65;;
65581;SDS011;52231;40.090;18.348;2022-12-13T10:36:53;8.07;;;3.17;;
65581;SDS011;52231;40.090;18.348;2022-12-13T10:39:38;8.77;;;2.83;;
65581;SDS011;52231;40.090;18.348;2022-12-13T10:42:11;8.70;;;2.60;;
65581;SDS011;52231;40.090;18.348;2022-12-13T10:44:42;7.00;;;2.65;;
65581;SDS011;52231;40.090;18.348;2022-12-13T10:52:27;5.78;;;2.30;;
65581;SDS011;52231;40.090;18.348;2022-12-13T10:55:00;6.70;;;2.38;;
65581;SDS011;52231;40.090;18.348;2022-12-13T10:57:32;6.82;;;2.00;;
65581;SDS011;52231;40.090;18.348;2022-12-13T11:00:00;7.22;;;2.17;;
65581;SDS011;52231;40.090;18.348;2022-12-13T11:02:33;9.60;;;3.30;;
65581;SDS011;52231;40.090;18.348;2022-12-13T11:05:21;9.48;;;3.70;;
65581;SDS011;52231;40.090;18.348;2022-12-13T11:07:52;9.60;;;4.07;;
65581;SDS011;52231;40.090;18.348;2022-12-13T11:10:27;11.82;;;3.92;;
65581;SDS011;52231;40.090;18.348;2022-12-13T11:13:01;11.45;;;3.78;;
65581;SDS011;52231;40.090;18.348;2022-12-13T11:15:32;9.60;;;2.70;;
65581;SDS011;52231;40.090;18.348;2022-12-13T11:18:04;7.45;;;2.30;;
65581;SDS011;52231;40.090;18.348;2022-12-13T11:20:35;8.13;;;2.85;;
65581;SDS011;52231;40.090;18.348;2022-12-13T11:26:16;6.93;;;2.40;;
65581;SDS011;52231;40.090;18.348;2022-12-13T11:37:31;6.28;;;2.60;;
65581;SDS011;52231;40.090;18.348;2022-12-13T11:42:45;11.40;;;4.00;;
65581;SDS011;52231;40.090;18.348;2022-12-13T11:45:19;13.43;;;4.70;;
65581;SDS011;52231;40.090;18.348;2022-12-13T11:50:40;6.13;;;2.75;;
65581;SDS011;52231;40.090;18.348;2022-12-13T11:58:26;9.68;;;2.60;;
65581;SDS011;52231;40.090;18.348;2022-12-13T12:04:20;8.90;;;2.47;;
65581;SDS011;52231;40.090;18.348;2022-12-13T12:07:00;8.32;;;2.40;;
65581;SDS011;52231;40.090;18.348;2022-12-13T12:10:25;10.23;;;2.53;;
65581;SDS011;52231;40.090;18.348;2022-12-13T12:15:57;8.20;;;2.45;;
65581;SDS011;52231;40.090;18.348;2022-12-13T12:18:53;6.40;;;2.30;;
65581;SDS011;52231;40.090;18.348;2022-12-13T12:38:13;8.13;;;2.58;;
65581;SDS011;52231;40.090;18.348;2022-12-13T12:43:41;10.05;;;3.80;;
65581;SDS011;52231;40.090;18.348;2022-12-13T12:52:24;8.88;;;2.65;;
65581;SDS011;52231;40.090;18.348;2022-12-13T12:55:17;8.73;;;2.67;;
65581;SDS011;52231;40.090;18.348;2022-12-13T13:04:25;22.20;;;4.47;;
65581;SDS011;52231;40.090;18.348;2022-12-13T13:07:01;10.55;;;3.28;;
65581;SDS011;52231;40.090;18.348;2022-12-13T13:09:33;10.27;;;3.80;;
65581;SDS011;52231;40.090;18.348;2022-12-13T13:12:04;10.38;;;3.38;;
65581;SDS011;52231;40.090;18.348;2022-12-13T13:14:34;12.23;;;3.17;;
65581;SDS011;52231;40.090;18.348;2022-12-13T13:17:46;12.05;;;3.75;;
65581;SDS011;52231;40.090;18.348;2022-12-13T13:20:18;14.45;;;4.18;;
65581;SDS011;52231;40.090;18.348;2022-12-13T13:22:56;9.73;;;2.97;;
65581;SDS011;52231;40.090;18.348;2022-12-13T13:25:37;16.63;;;5.00;;
65581;SDS011;52231;40.090;18.348;2022-12-13T13:28:15;11.02;;;3.85;;
65581;SDS011;52231;40.090;18.348;2022-12-13T13:31:00;15.55;;;5.20;;
65581;SDS011;52231;40.090;18.348;2022-12-13T13:33:41;11.82;;;3.83;;
65581;SDS011;52231;40.090;18.348;2022-12-13T13:39:15;9.88;;;3.30;;
65581;SDS011;52231;40.090;18.348;2022-12-13T13:58:34;14.13;;;3.72;;
65581;SDS011;52231;40.090;18.348;2022-12-13T14:04:33;12.40;;;3.00;;
65581;SDS011;52231;40.090;18.348;2022-12-13T14:07:17;10.30;;;3.38;;
65581;SDS011;52231;40.090;18.348;2022-12-13T14:19:14;13.57;;;4.03;;
65581;SDS011;52231;40.090;18.348;2022-12-13T14:30:36;14.55;;;4.30;;
65581;SDS011;52231;40.090;18.348;2022-12-13T14:33:13;13.07;;;3.65;;
65581;SDS011;52231;40.090;18.348;2022-12-13T14:35:50;13.98;;;4.82;;
65581;SDS011;52231;40.090;18.348;2022-12-13T14:38:23;17.48;;;5.93;;
65581;SDS011;52231;40.090;18.348;2022-12-13T14:40:54;16.45;;;7.10;;
65581;SDS011;52231;40.090;18.348;2022-12-13T14:48:29;13.45;;;4.20;;
65581;SDS011;52231;40.090;18.348;2022-12-13T14:51:30;14.60;;;4.70;;
65581;SDS011;52231;40.090;18.348;2022-12-13T14:54:04;11.10;;;3.97;;
65581;SDS011;52231;40.090;18.348;2022-12-13T14:56:34;14.15;;;4.15;;
65581;SDS011;52231;40.090;18.348;2022-12-13T14:59:20;14.02;;;3.60;;
65581;SDS011;52231;40.090;18.348;2022-12-13T15:01:58;10.27;;;2.83;;
65581;SDS011;52231;40.090;18.348;2022-12-13T15:04:31;13.98;;;4.38;;
65581;SDS011;52231;40.090;18.348;2022-12-13T15:09:49;16.35;;;5.35;;
65581;SDS011;52231;40.090;18.348;2022-12-13T15:12:21;19.88;;;5.63;;
65581;SDS011;52231;40.090;18.348;2022-12-13T15:14:54;19.10;;;5.50;;
65581;SDS011;52231;40.090;18.348;2022-12-13T15:23:04;13.55;;;4.63;;
65581;SDS011;52231;40.090;18.348;2022-12-13T15:25:46;12.73;;;4.82;;
65581;SDS011;52231;40.090;18.348;2022-12-13T15:28:28;22.60;;;9.50;;
65581;SDS011;52231;40.090;18.348;2022-12-13T15:31:02;15.23;;;7.07;;
65581;SDS011;52231;40.090;18.348;2022-12-13T15:33:32;15.02;;;5.22;;
65581;SDS011;52231;40.090;18.348;2022-12-13T15:36:13;20.25;;;5.22;;
65581;SDS011;52231;40.090;18.348;2022-12-13T15:43:56;17.90;;;5.28;;
65581;SDS011;52231;40.090;18.348;2022-12-13T15:46:44;15.55;;;5.20;;
65581;SDS011;52231;40.090;18.348;2022-12-13T15:52:05;17.67;;;5.38;;
65581;SDS011;52231;40.090;18.348;2022-12-13T15:54:41;19.83;;;7.25;;
65581;SDS011;52231;40.090;18.348;2022-12-13T15:57:21;23.02;;;7.95;;
65581;SDS011;52231;40.090;18.348;2022-12-13T16:05:38;18.35;;;7.68;;
65581;SDS011;52231;40.090;18.348;2022-12-13T16:08:30;13.68;;;5.55;;
65581;SDS011;52231;40.090;18.348;2022-12-13T16:11:02;15.80;;;5.90;;
65581;SDS011;52231;40.090;18.348;2022-12-13T16:13:35;11.85;;;4.80;;
65581;SDS011;52231;40.090;18.348;2022-12-13T16:18:56;13.32;;;5.32;;
65581;SDS011;52231;40.090;18.348;2022-12-13T16:21:26;15.95;;;7.05;;
65581;SDS011;52231;40.090;18.348;2022-12-13T16:23:55;16.65;;;8.48;;
65581;SDS011;52231;40.090;18.348;2022-12-13T16:26:24;10.50;;;3.17;;
65581;SDS011;52231;40.090;18.348;2022-12-13T16:28:55;12.05;;;5.78;;
65581;SDS011;52231;40.090;18.348;2022-12-13T16:31:27;15.60;;;5.00;;
65581;SDS011;52231;40.090;18.348;2022-12-13T16:34:02;11.43;;;4.63;;
65581;SDS011;52231;40.090;18.348;2022-12-13T16:36:51;11.23;;;4.47;;
65581;SDS011;52231;40.090;18.348;2022-12-13T16:39:19;11.90;;;5.13;;
65581;SDS011;52231;40.090;18.348;2022-12-13T16:41:47;15.35;;;5.82;;
65581;SDS011;52231;40.090;18.348;2022-12-13T16:44:20;12.40;;;4.88;;
65581;SDS011;52231;40.090;18.348;2022-12-13T16:47:08;17.20;;;5.88;;
65581;SDS011;52231;40.090;18.348;2022-12-13T16:49:45;22.63;;;7.90;;
65581;SDS011;52231;40.090;18.348;2022-12-13T16:52:13;16.15;;;7.25;;
65581;SDS011;52231;40.090;18.348;2022-12-13T16:54:44;15.70;;;6.13;;
65581;SDS011;52231;40.090;18.348;2022-12-13T16:57:13;15.25;;;5.47;;
65581;SDS011;52231;40.090;18.348;2022-12-13T16:59:41;12.65;;;5.75;;
65581;SDS011;52231;40.090;18.348;2022-12-13T17:02:15;14.00;;;4.53;;
65581;SDS011;52231;40.090;18.348;2022-12-13T17:04:44;13.52;;;4.88;;
65581;SDS011;52231;40.090;18.348;2022-12-13T17:07:13;13.20;;;5.05;;
65581;SDS011;52231;40.090;18.348;2022-12-13T17:09:41;14.27;;;5.22;;
65581;SDS011;52231;40.090;18.348;2022-12-13T17:14:38;16.92;;;4.40;;
65581;SDS011;52231;40.090;18.348;2022-12-13T17:17:06;19.50;;;6.20;;
65581;SDS011;52231;40.090;18.348;2022-12-13T17:19:36;19.55;;;5.90;;
65581;SDS011;52231;40.090;18.348;2022-12-13T17:22:05;18.05;;;7.93;;
65581;SDS011;52231;40.090;18.348;2022-12-13T17:24:33;22.10;;;10.18;;
65581;SDS011;52231;40.090;18.348;2022-12-13T17:29:30;24.00;;;10.43;;
65581;SDS011;52231;40.090;18.348;2022-12-13T17:31:58;19.98;;;7.35;;
65581;SDS011;52231;40.090;18.348;2022-12-13T17:34:27;15.68;;;5.75;;
65581;SDS011;52231;40.090;18.348;2022-12-13T17:36:55;19.17;;;6.30;;
65581;SDS011;52231;40.090;18.348;2022-12-13T17:39:24;31.85;;;11.15;;
65581;SDS011;52231;40.090;18.348;2022-12-13T17:41:52;20.25;;;7.07;;
65581;SDS011;52231;40.090;18.348;2022-12-13T17:44:20;20.17;;;7.30;;
65581;SDS011;52231;40.090;18.348;2022-12-13T17:46:48;19.77;;;7.10;;
65581;SDS011;52231;40.090;18.348;2022-12-13T17:49:17;18.40;;;5.18;;
65581;SDS011;52231;40.090;18.348;2022-12-13T17:51:46;19.30;;;7.03;;
65581;SDS011;52231;40.090;18.348;2022-12-13T17:54:15;23.02;;;9.52;;
65581;SDS011;52231;40.090;18.348;2022-12-13T17:56:43;23.35;;;7.32;;
65581;SDS011;52231;40.090;18.348;2022-12-13T17:59:12;21.73;;;6.88;;
65581;SDS011;52231;40.090;18.348;2022-12-13T18:01:41;16.08;;;5.70;;
65581;SDS011;52231;40.090;18.348;2022-12-13T18:04:10;20.88;;;6.97;;
65581;SDS011;52231;40.090;18.348;2022-12-13T18:06:39;20.83;;;7.95;;
65581;SDS011;52231;40.090;18.348;2022-12-13T18:09:07;16.67;;;6.68;;
65581;SDS011;52231;40.090;18.348;2022-12-13T18:11:38;19.02;;;4.90;;
65581;SDS011;52231;40.090;18.348;2022-12-13T18:14:07;23.77;;;7.90;;